sensor_id;sensor_type;location;lat;lon;timestamp;pressure;altitude;pressure_sealevel;temperature;humidity
54270;BME280;40181;51.560;13.000;2023-06-01T00:00:08;101000.44;;;16.69;52.68
54270;BME280;40181;51.560;13.000;2023-06-01T00:02:40;101001.50;;;16.25;54.53
54270;BME280;40181;51.560;13.000;2023-06-01T00:05:09;101011.25;;;15.88;55.53
54270;BME280;40181;51.560;13.000;2023-06-01T00:07:38;101008.63;;;15.46;56.51
54270;BME280;40181;51.560;13.000;2023-06-01T00:10:08;101017.47;;;15.67;55.90
54270;BME280;40181;51.560;13.000;2023-06-01T00:12:38;101005.97;;;15.14;57.53
54270;BME280;40181;51.560;13.000;2023-06-01T00:15:08;101006.81;;;15.03;57.39
54270;BME280;40181;51.560;13.000;2023-06-01T00:17:40;101013.91;;;15.87;55.88
54270;BME280;40181;51.560;13.000;2023-06-01T00:20:09;101014.78;;;15.80;55.93
54270;BME280;40181;51.560;13.000;2023-06-01T00:22:39;101006.84;;;15.86;55.33
54270;BME280;40181;51.560;13.000;2023-06-01T00:25:08;101007.75;;;15.91;55.63
54270;BME280;40181;51.560;13.000;2023-06-01T00:27:37;100999.81;;;15.77;56.76
54270;BME280;40181;51.560;13.000;2023-06-01T00:30:07;101012.16;;;15.50;57.25
54270;BME280;40181;51.560;13.000;2023-06-01T00:32:40;101002.44;;;15.30;58.33
54270;BME280;40181;51.560;13.000;2023-06-01T00:35:09;101006.81;;;14.97;59.38
54270;BME280;40181;51.560;13.000;2023-06-01T00:37:38;101011.91;;;14.46;61.25
54270;BME280;40181;51.560;13.000;2023-06-01T00:40:08;101009.28;;;14.61;60.82
54270;BME280;40181;51.560;13.000;2023-06-01T00:42:38;101001.44;;;14.75;60.33
54270;BME280;40181;51.560;13.000;2023-06-01T00:45:07;101003.97;;;14.53;60.88
54270;BME280;40181;51.560;13.000;2023-06-01T00:47:41;101001.41;;;14.71;60.59
54270;BME280;40181;51.560;13.000;2023-06-01T00:50:12;101002.41;;;15.07;59.46
54270;BME280;40181;51.560;13.000;2023-06-01T00:52:42;101003.03;;;14.33;61.24
54270;BME280;40181;51.560;13.000;2023-06-01T00:55:11;100996.06;;;14.50;60.78
54270;BME280;40181;51.560;13.000;2023-06-01T00:57:42;100993.44;;;14.61;60.35
54270;BME280;40181;51.560;13.000;2023-06-01T01:00:12;100987.25;;;14.58;60.11
54270;BME280;40181;51.560;13.000;2023-06-01T01:02:45;101003.31;;;15.09;58.56
54270;BME280;40181;51.560;13.000;2023-06-01T01:05:15;100998.03;;;15.14;58.24
54270;BME280;40181;51.560;13.000;2023-06-01T01:07:51;100994.50;;;15.23;58.46
54270;BME280;40181;51.560;13.000;2023-06-01T01:10:31;100994.53;;;15.54;57.28
54270;BME280;40181;51.560;13.000;2023-06-01T01:13:06;100995.38;;;15.21;57.92
54270;BME280;40181;51.560;13.000;2023-06-01T01:15:45;101001.56;;;15.31;58.05
54270;BME280;40181;51.560;13.000;2023-06-01T01:18:27;101004.22;;;15.56;56.94
54270;BME280;40181;51.560;13.000;2023-06-01T01:21:01;100992.72;;;15.25;58.02
54270;BME280;40181;51.560;13.000;2023-06-01T01:27:10;100999.78;;;15.13;58.21
54270;BME280;40181;51.560;13.000;2023-06-01T01:29:53;101001.56;;;15.34;57.76
54270;BME280;40181;51.560;13.000;2023-06-01T01:32:23;101000.69;;;15.40;57.41
54270;BME280;40181;51.560;13.000;2023-06-01T01:34:55;101002.44;;;15.24;57.83
54270;BME280;40181;51.560;13.000;2023-06-01T01:37:25;101010.19;;;14.59;59.83
54270;BME280;40181;51.560;13.000;2023-06-01T01:39:54;101000.63;;;14.89;58.65
54270;BME280;40181;51.560;13.000;2023-06-01T01:42:23;100998.91;;;15.16;57.68
54270;BME280;40181;51.560;13.000;2023-06-01T01:44:55;101000.66;;;15.12;58.00
54270;BME280;40181;51.560;13.000;2023-06-01T01:47:29;100995.38;;;15.35;57.27
54270;BME280;40181;51.560;13.000;2023-06-01T01:50:06;100989.19;;;15.23;57.93
54270;BME280;40181;51.560;13.000;2023-06-01T01:52:39;100994.47;;;15.12;57.73
54270;BME280;40181;51.560;13.000;2023-06-01T01:55:10;100990.94;;;15.10;57.87
54270;BME280;40181;51.560;13.000;2023-06-01T01:57:41;100996.25;;;15.06;57.46
54270;BME280;40181;51.560;13.000;2023-06-01T02:00:13;100983.88;;;15.04;57.44
54270;BME280;40181;51.560;13.000;2023-06-01T02:02:44;100999.75;;;15.12;56.93
54270;BME280;40181;51.560;13.000;2023-06-01T02:05:13;100991.84;;;15.24;56.81
54270;BME280;40181;51.560;13.000;2023-06-01T02:07:44;100993.63;;;15.34;56.88
54270;BME280;40181;51.560;13.000;2023-06-01T02:10:13;100989.69;;;14.13;59.83
54270;BME280;40181;51.560;13.000;2023-06-01T02:12:42;100991.50;;;14.20;60.24
54270;BME280;40181;51.560;13.000;2023-06-01T02:15:13;100987.84;;;13.99;60.54
54270;BME280;40181;51.560;13.000;2023-06-01T02:17:42;100991.94;;;13.55;62.66
54270;BME280;40181;51.560;13.000;2023-06-01T02:20:11;100987.75;;;13.85;62.20
54270;BME280;40181;51.560;13.000;2023-06-01T02:22:40;100997.50;;;13.95;61.67
54270;BME280;40181;51.560;13.000;2023-06-01T02:25:10;100998.09;;;13.54;62.77
54270;BME280;40181;51.560;13.000;2023-06-01T02:27:39;100997.81;;;13.26;64.19
54270;BME280;40181;51.560;13.000;2023-06-01T02:30:08;101000.31;;;13.13;64.73
54270;BME280;40181;51.560;13.000;2023-06-01T02:32:41;101001.94;;;12.97;66.24
54270;BME280;40181;51.560;13.000;2023-06-01T02:35:13;100995.03;;;13.13;65.24
54270;BME280;40181;51.560;13.000;2023-06-01T02:37:42;100990.22;;;13.62;64.28
54270;BME280;40181;51.560;13.000;2023-06-01T02:40:11;100993.91;;;12.85;66.22
54270;BME280;40181;51.560;13.000;2023-06-01T02:42:40;100992.41;;;13.13;66.06
54270;BME280;40181;51.560;13.000;2023-06-01T02:45:09;101000.47;;;12.47;68.50
54270;BME280;40181;51.560;13.000;2023-06-01T02:47:41;101001.63;;;12.69;67.97
54270;BME280;40181;51.560;13.000;2023-06-01T02:50:11;100994.56;;;12.67;67.85
54270;BME280;40181;51.560;13.000;2023-06-01T02:52:40;100995.69;;;12.16;69.82
54270;BME280;40181;51.560;13.000;2023-06-01T02:55:09;100988.69;;;12.18;69.80
54270;BME280;40181;51.560;13.000;2023-06-01T02:57:38;100989.44;;;12.79;68.47
54270;BME280;40181;51.560;13.000;2023-06-01T03:00:08;100987.19;;;12.38;68.97
54270;BME280;40181;51.560;13.000;2023-06-01T03:02:44;100981.28;;;12.57;68.73
54270;BME280;40181;51.560;13.000;2023-06-01T03:05:14;100994.34;;;12.48;69.18
54270;BME280;40181;51.560;13.000;2023-06-01T03:07:43;100991.63;;;12.40;69.31
54270;BME280;40181;51.560;13.000;2023-06-01T03:10:13;100989.06;;;12.48;69.44
54270;BME280;40181;51.560;13.000;2023-06-01T03:12:42;100990.78;;;12.44;69.73
54270;BME280;40181;51.560;13.000;2023-06-01T03:15:11;100981.84;;;12.33;69.99
54270;BME280;40181;51.560;13.000;2023-06-01T03:17:43;100981.53;;;12.07;71.55
54270;BME280;40181;51.560;13.000;2023-06-01T03:20:12;100987.81;;;12.18;71.07
54270;BME280;40181;51.560;13.000;2023-06-01T03:22:42;100985.91;;;12.08;71.85
54270;BME280;40181;51.560;13.000;2023-06-01T03:25:12;100984.16;;;12.07;72.22
54270;BME280;40181;51.560;13.000;2023-06-01T03:27:42;100984.41;;;12.27;71.76
54270;BME280;40181;51.560;13.000;2023-06-01T03:30:11;100995.00;;;11.73;73.99
54270;BME280;40181;51.560;13.000;2023-06-01T03:32:44;100993.00;;;12.15;72.93
54270;BME280;40181;51.560;13.000;2023-06-01T03:35:13;100988.31;;;11.94;72.96
54270;BME280;40181;51.560;13.000;2023-06-01T03:37:44;100992.13;;;12.11;72.85
54270;BME280;40181;51.560;13.000;2023-06-01T03:40:13;100991.56;;;12.36;72.02
54270;BME280;40181;51.560;13.000;2023-06-01T03:42:44;100985.78;;;12.68;70.88
54270;BME280;40181;51.560;13.000;2023-06-01T03:45:15;100985.13;;;12.86;69.87
54270;BME280;40181;51.560;13.000;2023-06-01T03:47:47;100982.50;;;12.89;69.72
54270;BME280;40181;51.560;13.000;2023-06-01T03:50:16;100985.97;;;12.86;69.51
54270;BME280;40181;51.560;13.000;2023-06-01T03:52:45;100988.66;;;12.88;70.02
54270;BME280;40181;51.560;13.000;2023-06-01T03:55:14;100996.44;;;12.77;70.29
54270;BME280;40181;51.560;13.000;2023-06-01T03:57:44;100986.19;;;13.04;69.27
54270;BME280;40181;51.560;13.000;2023-06-01T04:00:14;100980.03;;;13.05;69.36
54270;BME280;40181;51.560;13.000;2023-06-01T04:02:51;100993.91;;;12.86;70.42
54270;BME280;40181;51.560;13.000;2023-06-01T04:05:22;100996.38;;;12.71;71.72
54270;BME280;40181;51.560;13.000;2023-06-01T04:07:54;100989.34;;;12.70;71.24
54270;BME280;40181;51.560;13.000;2023-06-01T04:10:23;100981.78;;;13.04;69.96
54270;BME280;40181;51.560;13.000;2023-06-01T04:12:52;100991.53;;;13.13;69.54
54270;BME280;40181;51.560;13.000;2023-06-01T04:15:22;101000.38;;;13.17;70.11
54270;BME280;40181;51.560;13.000;2023-06-01T04:17:53;100988.06;;;13.17;69.58
54270;BME280;40181;51.560;13.000;2023-06-01T04:20:23;100992.03;;;12.76;71.69
54270;BME280;40181;51.560;13.000;2023-06-01T04:22:52;100987.03;;;13.04;70.87
54270;BME280;40181;51.560;13.000;2023-06-01T04:25:21;100981.88;;;13.12;70.96
54270;BME280;40181;51.560;13.000;2023-06-01T04:27:50;100986.22;;;13.10;71.46
54270;BME280;40181;51.560;13.000;2023-06-01T04:30:20;100991.66;;;13.24;70.96
54270;BME280;40181;51.560;13.000;2023-06-01T04:32:49;100983.84;;;13.39;70.87
54270;BME280;40181;51.560;13.000;2023-06-01T04:35:21;100984.63;;;13.27;72.26
54270;BME280;40181;51.560;13.000;2023-06-01T04:37:50;100995.31;;;13.43;72.21
54270;BME280;40181;51.560;13.000;2023-06-01T04:40:20;100977.00;;;13.59;72.05
54270;BME280;40181;51.560;13.000;2023-06-01T04:42:49;100987.72;;;13.80;72.21
54270;BME280;40181;51.560;13.000;2023-06-01T04:45:21;100993.84;;;13.75;72.90
54270;BME280;40181;51.560;13.000;2023-06-01T04:47:51;100991.13;;;13.65;73.97
54270;BME280;40181;51.560;13.000;2023-06-01T04:50:25;100996.59;;;13.90;73.54
54270;BME280;40181;51.560;13.000;2023-06-01T04:52:54;100989.38;;;13.61;75.75
54270;BME280;40181;51.560;13.000;2023-06-01T04:55:23;101001.81;;;13.78;75.18
54270;BME280;40181;51.560;13.000;2023-06-01T04:57:52;100993.84;;;13.73;76.40
54270;BME280;40181;51.560;13.000;2023-06-01T05:00:21;100988.63;;;13.81;75.14
54270;BME280;40181;51.560;13.000;2023-06-01T05:02:51;100982.53;;;13.94;74.95
54270;BME280;40181;51.560;13.000;2023-06-01T05:05:20;100986.09;;;14.00;75.05
54270;BME280;40181;51.560;13.000;2023-06-01T05:07:51;100981.84;;;14.30;74.24
54270;BME280;40181;51.560;13.000;2023-06-01T05:10:20;100978.38;;;14.38;74.41
54270;BME280;40181;51.560;13.000;2023-06-01T05:12:49;100987.22;;;14.42;74.29
54270;BME280;40181;51.560;13.000;2023-06-01T05:15:18;100986.25;;;14.24;75.06
54270;BME280;40181;51.560;13.000;2023-06-01T05:17:47;100970.38;;;14.26;74.96
54270;BME280;40181;51.560;13.000;2023-06-01T05:20:16;100973.88;;;14.14;74.63
54270;BME280;40181;51.560;13.000;2023-06-01T05:22:45;100979.13;;;14.16;75.49
54270;BME280;40181;51.560;13.000;2023-06-01T05:25:17;100976.44;;;14.06;76.56
54270;BME280;40181;51.560;13.000;2023-06-01T05:27:46;100982.63;;;14.13;76.06
54270;BME280;40181;51.560;13.000;2023-06-01T05:30:15;100980.91;;;14.18;77.00
54270;BME280;40181;51.560;13.000;2023-06-01T05:32:44;100972.00;;;14.01;76.90
54270;BME280;40181;51.560;13.000;2023-06-01T05:35:13;100976.53;;;14.19;76.42
54270;BME280;40181;51.560;13.000;2023-06-01T05:37:42;100973.16;;;14.60;74.61
54270;BME280;40181;51.560;13.000;2023-06-01T05:40:12;100971.31;;;14.41;75.06
54270;BME280;40181;51.560;13.000;2023-06-01T05:42:44;100980.97;;;14.35;75.41
54270;BME280;40181;51.560;13.000;2023-06-01T05:45:13;100972.22;;;14.36;75.47
54270;BME280;40181;51.560;13.000;2023-06-01T05:47:42;100980.19;;;14.50;75.01
54270;BME280;40181;51.560;13.000;2023-06-01T05:50:13;100979.25;;;14.39;75.75
54270;BME280;40181;51.560;13.000;2023-06-01T05:52:42;100980.22;;;14.66;74.83
54270;BME280;40181;51.560;13.000;2023-06-01T05:55:11;100982.88;;;14.64;74.52
54270;BME280;40181;51.560;13.000;2023-06-01T05:57:40;100982.84;;;14.55;74.83
54270;BME280;40181;51.560;13.000;2023-06-01T06:00:13;100978.44;;;14.54;74.74
54270;BME280;40181;51.560;13.000;2023-06-01T06:02:43;100980.22;;;14.71;74.52
54270;BME280;40181;51.560;13.000;2023-06-01T06:05:12;100984.69;;;14.81;73.85
54270;BME280;40181;51.560;13.000;2023-06-01T06:07:41;100985.63;;;14.94;74.14
54270;BME280;40181;51.560;13.000;2023-06-01T06:10:12;100989.13;;;14.79;74.47
54270;BME280;40181;51.560;13.000;2023-06-01T06:12:43;100979.47;;;15.11;73.13
54270;BME280;40181;51.560;13.000;2023-06-01T06:15:13;100984.75;;;14.89;73.93
54270;BME280;40181;51.560;13.000;2023-06-01T06:17:42;100976.84;;;15.03;72.99
54270;BME280;40181;51.560;13.000;2023-06-01T06:20:12;100974.16;;;14.92;73.43
54270;BME280;40181;51.560;13.000;2023-06-01T06:22:41;100969.75;;;14.94;72.66
54270;BME280;40181;51.560;13.000;2023-06-01T06:25:11;100972.44;;;15.13;72.12
54270;BME280;40181;51.560;13.000;2023-06-01T06:27:40;100968.94;;;15.42;70.09
54270;BME280;40181;51.560;13.000;2023-06-01T06:30:12;100954.78;;;15.61;69.44
54270;BME280;40181;51.560;13.000;2023-06-01T06:32:41;100972.38;;;15.89;68.38
54270;BME280;40181;51.560;13.000;2023-06-01T06:35:10;100956.50;;;15.80;69.21
54270;BME280;40181;51.560;13.000;2023-06-01T06:37:39;100949.50;;;15.18;70.47
54270;BME280;40181;51.560;13.000;2023-06-01T06:40:09;100952.09;;;16.05;68.01
54270;BME280;40181;51.560;13.000;2023-06-01T06:42:40;100953.03;;;15.71;67.93
54270;BME280;40181;51.560;13.000;2023-06-01T06:45:12;100964.38;;;16.23;66.45
54270;BME280;40181;51.560;13.000;2023-06-01T06:47:41;100957.38;;;16.08;66.60
54270;BME280;40181;51.560;13.000;2023-06-01T06:50:10;100958.94;;;16.57;66.69
54270;BME280;40181;51.560;13.000;2023-06-01T06:52:40;100955.53;;;16.32;65.96
54270;BME280;40181;51.560;13.000;2023-06-01T06:55:09;100943.88;;;16.61;65.07
54270;BME280;40181;51.560;13.000;2023-06-01T06:57:38;100941.94;;;16.94;63.42
54270;BME280;40181;51.560;13.000;2023-06-01T07:00:11;100954.69;;;16.25;64.29
54270;BME280;40181;51.560;13.000;2023-06-01T07:02:41;100958.97;;;16.48;66.50
54270;BME280;40181;51.560;13.000;2023-06-01T07:05:10;100961.47;;;16.81;63.88
54270;BME280;40181;51.560;13.000;2023-06-01T07:07:40;100957.81;;;17.00;63.49
54270;BME280;40181;51.560;13.000;2023-06-01T07:10:10;100956.84;;;17.14;62.15
54270;BME280;40181;51.560;13.000;2023-06-01T07:12:39;100961.56;;;16.62;63.27
54270;BME280;40181;51.560;13.000;2023-06-01T07:15:11;100953.53;;;16.74;61.93
54270;BME280;40181;51.560;13.000;2023-06-01T07:17:41;100952.22;;;17.41;59.34
54270;BME280;40181;51.560;13.000;2023-06-01T07:20:11;100960.25;;;17.30;58.96
54270;BME280;40181;51.560;13.000;2023-06-01T07:22:40;100949.47;;;17.52;58.59
54270;BME280;40181;51.560;13.000;2023-06-01T07:25:10;100960.59;;;17.91;56.72
54270;BME280;40181;51.560;13.000;2023-06-01T07:27:40;100954.63;;;17.67;56.40
54270;BME280;40181;51.560;13.000;2023-06-01T07:30:16;100953.13;;;17.38;57.48
54270;BME280;40181;51.560;13.000;2023-06-01T07:32:45;100954.59;;;17.70;58.34
54270;BME280;40181;51.560;13.000;2023-06-01T07:35:14;100940.38;;;17.76;56.98
54270;BME280;40181;51.560;13.000;2023-06-01T07:37:43;100945.44;;;17.98;55.41
54270;BME280;40181;51.560;13.000;2023-06-01T07:40:12;100931.41;;;17.88;57.85
54270;BME280;40181;51.560;13.000;2023-06-01T07:42:41;100931.06;;;18.18;57.17
54270;BME280;40181;51.560;13.000;2023-06-01T07:45:10;100939.13;;;18.11;57.79
54270;BME280;40181;51.560;13.000;2023-06-01T07:47:42;100942.81;;;17.96;56.71
54270;BME280;40181;51.560;13.000;2023-06-01T07:50:11;100931.00;;;18.25;58.19
54270;BME280;40181;51.560;13.000;2023-06-01T07:52:40;100930.59;;;17.80;59.86
54270;BME280;40181;51.560;13.000;2023-06-01T07:55:09;100930.66;;;17.74;60.16
54270;BME280;40181;51.560;13.000;2023-06-01T07:57:40;100919.13;;;18.51;58.62
54270;BME280;40181;51.560;13.000;2023-06-01T08:00:10;100925.97;;;18.70;57.48
54270;BME280;40181;51.560;13.000;2023-06-01T08:02:45;100935.03;;;18.55;59.25
54270;BME280;40181;51.560;13.000;2023-06-01T08:05:14;100927.13;;;18.51;59.78
54270;BME280;40181;51.560;13.000;2023-06-01T08:07:44;100918.94;;;18.65;60.11
54270;BME280;40181;51.560;13.000;2023-06-01T08:10:14;100933.16;;;18.61;59.61
54270;BME280;40181;51.560;13.000;2023-06-01T08:12:43;100931.75;;;18.98;59.83
54270;BME280;40181;51.560;13.000;2023-06-01T08:15:13;100920.28;;;18.93;58.75
54270;BME280;40181;51.560;13.000;2023-06-01T08:17:45;100931.78;;;18.95;60.29
54270;BME280;40181;51.560;13.000;2023-06-01T08:20:14;100923.78;;;18.97;58.32
54270;BME280;40181;51.560;13.000;2023-06-01T08:22:46;100924.75;;;18.92;58.74
54270;BME280;40181;51.560;13.000;2023-06-01T08:25:16;100926.38;;;19.04;58.89
54270;BME280;40181;51.560;13.000;2023-06-01T08:27:45;100932.19;;;18.69;59.32
54270;BME280;40181;51.560;13.000;2023-06-01T08:30:15;100932.50;;;19.08;59.37
54270;BME280;40181;51.560;13.000;2023-06-01T08:32:47;100922.53;;;19.21;59.15
54270;BME280;40181;51.560;13.000;2023-06-01T08:35:16;100942.34;;;19.00;58.75
54270;BME280;40181;51.560;13.000;2023-06-01T08:37:47;100932.19;;;18.69;59.60
54270;BME280;40181;51.560;13.000;2023-06-01T08:40:16;100926.59;;;18.86;60.17
54270;BME280;40181;51.560;13.000;2023-06-01T08:42:51;100928.13;;;19.04;59.55
54270;BME280;40181;51.560;13.000;2023-06-01T08:45:25;100926.53;;;18.90;59.63
54270;BME280;40181;51.560;13.000;2023-06-01T08:47:58;100915.94;;;19.42;59.14
54270;BME280;40181;51.560;13.000;2023-06-01T08:50:27;100917.50;;;19.02;58.56
54270;BME280;40181;51.560;13.000;2023-06-01T08:52:56;100922.03;;;20.42;55.24
54270;BME280;40181;51.560;13.000;2023-06-01T08:55:26;100920.81;;;19.18;58.76
54270;BME280;40181;51.560;13.000;2023-06-01T08:57:55;100913.22;;;19.93;57.37
54270;BME280;40181;51.560;13.000;2023-06-01T09:00:25;100924.63;;;19.00;57.18
54270;BME280;40181;51.560;13.000;2023-06-01T09:03:00;100918.66;;;19.88;55.20
54270;BME280;40181;51.560;13.000;2023-06-01T09:05:29;100920.94;;;20.10;54.23
54270;BME280;40181;51.560;13.000;2023-06-01T09:07:58;100921.28;;;18.86;56.79
54270;BME280;40181;51.560;13.000;2023-06-01T09:10:27;100912.34;;;19.45;55.74
54270;BME280;40181;51.560;13.000;2023-06-01T09:12:56;100917.44;;;19.57;54.65
54270;BME280;40181;51.560;13.000;2023-06-01T09:15:26;100917.41;;;19.08;56.56
54270;BME280;40181;51.560;13.000;2023-06-01T09:18:07;100914.50;;;19.73;54.40
54270;BME280;40181;51.560;13.000;2023-06-01T09:20:37;100921.16;;;18.32;57.78
54270;BME280;40181;51.560;13.000;2023-06-01T09:23:08;100924.53;;;19.60;55.16
54270;BME280;40181;51.560;13.000;2023-06-01T09:25:37;100907.50;;;19.67;55.36
54270;BME280;40181;51.560;13.000;2023-06-01T09:28:06;100903.19;;;20.09;53.71
54270;BME280;40181;51.560;13.000;2023-06-01T09:30:40;100888.16;;;20.03;52.83
54270;BME280;40181;51.560;13.000;2023-06-01T09:33:14;100908.28;;;19.25;54.08
54270;BME280;40181;51.560;13.000;2023-06-01T09:35:47;100891.09;;;19.89;55.44
54270;BME280;40181;51.560;13.000;2023-06-01T09:38:20;100884.72;;;19.99;52.84
54270;BME280;40181;51.560;13.000;2023-06-01T09:40:59;100898.47;;;19.26;53.46
54270;BME280;40181;51.560;13.000;2023-06-01T09:43:29;100887.19;;;19.63;54.57
54270;BME280;40181;51.560;13.000;2023-06-01T09:46:06;100893.03;;;20.26;52.32
54270;BME280;40181;51.560;13.000;2023-06-01T09:48:41;100888.13;;;19.59;53.96
54270;BME280;40181;51.560;13.000;2023-06-01T09:51:20;100882.78;;;20.47;53.55
54270;BME280;40181;51.560;13.000;2023-06-01T09:53:54;100885.44;;;20.49;51.88
54270;BME280;40181;51.560;13.000;2023-06-01T09:56:23;100880.50;;;19.86;51.65
54270;BME280;40181;51.560;13.000;2023-06-01T09:58:56;100886.72;;;20.30;51.79
54270;BME280;40181;51.560;13.000;2023-06-01T10:01:28;100878.22;;;20.11;52.14
54270;BME280;40181;51.560;13.000;2023-06-01T10:04:04;100873.16;;;19.99;52.71
54270;BME280;40181;51.560;13.000;2023-06-01T10:06:38;100868.00;;;19.88;53.34
54270;BME280;40181;51.560;13.000;2023-06-01T10:09:10;100868.31;;;20.18;53.02
54270;BME280;40181;51.560;13.000;2023-06-01T10:11:43;100866.38;;;20.26;52.45
54270;BME280;40181;51.560;13.000;2023-06-01T10:14:12;100878.91;;;19.27;53.30
54270;BME280;40181;51.560;13.000;2023-06-01T10:16:42;100870.38;;;20.05;52.06
54270;BME280;40181;51.560;13.000;2023-06-01T10:19:17;100874.63;;;20.12;51.70
54270;BME280;40181;51.560;13.000;2023-06-01T10:21:47;100874.78;;;19.60;53.57
54270;BME280;40181;51.560;13.000;2023-06-01T10:24:17;100863.47;;;19.93;51.90
54270;BME280;40181;51.560;13.000;2023-06-01T10:26:59;100859.19;;;20.28;51.12
54270;BME280;40181;51.560;13.000;2023-06-01T10:29:33;100872.34;;;18.94;53.62
54270;BME280;40181;51.560;13.000;2023-06-01T10:32:03;100853.13;;;20.59;51.92
54270;BME280;40181;51.560;13.000;2023-06-01T10:34:39;100855.44;;;20.75;51.05
54270;BME280;40181;51.560;13.000;2023-06-01T10:37:19;100857.00;;;20.85;50.05
54270;BME280;40181;51.560;13.000;2023-06-01T10:39:48;100859.59;;;20.89;50.89
54270;BME280;40181;51.560;13.000;2023-06-01T10:42:37;100836.91;;;21.40;50.54
54270;BME280;40181;51.560;13.000;2023-06-01T10:45:10;100838.78;;;21.36;50.43
54270;BME280;40181;51.560;13.000;2023-06-01T10:48:04;100842.56;;;21.94;48.02
54270;BME280;40181;51.560;13.000;2023-06-01T10:50:39;100844.50;;;21.55;47.48
54270;BME280;40181;51.560;13.000;2023-06-01T10:53:24;100838.25;;;21.23;48.33
54270;BME280;40181;51.560;13.000;2023-06-01T10:56:24;100833.38;;;21.38;47.81
54270;BME280;40181;51.560;13.000;2023-06-01T10:59:12;100843.16;;;22.04;47.31
54270;BME280;40181;51.560;13.000;2023-06-01T11:01:42;100829.19;;;21.94;47.19
54270;BME280;40181;51.560;13.000;2023-06-01T11:04:12;100835.56;;;22.20;46.88
54270;BME280;40181;51.560;13.000;2023-06-01T11:06:44;100835.97;;;21.74;47.25
54270;BME280;40181;51.560;13.000;2023-06-01T11:09:13;100828.41;;;21.57;46.97
54270;BME280;40181;51.560;13.000;2023-06-01T11:11:58;100829.66;;;21.77;46.95
54270;BME280;40181;51.560;13.000;2023-06-01T11:14:29;100814.97;;;21.60;46.99
54270;BME280;40181;51.560;13.000;2023-06-01T11:17:27;100828.31;;;21.60;47.01
54270;BME280;40181;51.560;13.000;2023-06-01T11:20:00;100822.56;;;22.36;46.65
54270;BME280;40181;51.560;13.000;2023-06-01T11:22:38;100812.72;;;22.65;45.51
54270;BME280;40181;51.560;13.000;2023-06-01T11:25:08;100808.09;;;22.42;45.34
54270;BME280;40181;51.560;13.000;2023-06-01T11:27:43;100800.63;;;22.53;46.70
54270;BME280;40181;51.560;13.000;2023-06-01T11:30:18;100807.69;;;22.56;45.26
54270;BME280;40181;51.560;13.000;2023-06-01T11:32:50;100810.19;;;22.03;47.38
54270;BME280;40181;51.560;13.000;2023-06-01T11:35:21;100794.81;;;22.67;45.52
54270;BME280;40181;51.560;13.000;2023-06-01T11:37:55;100802.81;;;22.69;45.69
54270;BME280;40181;51.560;13.000;2023-06-01T11:40:24;100783.69;;;22.24;46.79
54270;BME280;40181;51.560;13.000;2023-06-01T11:42:53;100796.09;;;22.55;45.37
54270;BME280;40181;51.560;13.000;2023-06-01T11:45:23;100781.94;;;22.78;42.94
54270;BME280;40181;51.560;13.000;2023-06-01T11:47:53;100787.00;;;22.61;43.22
54270;BME280;40181;51.560;13.000;2023-06-01T11:50:24;100787.75;;;22.36;44.74
54270;BME280;40181;51.560;13.000;2023-06-01T11:52:57;100786.88;;;22.35;43.50
54270;BME280;40181;51.560;13.000;2023-06-01T11:55:27;100783.84;;;22.46;43.19
54270;BME280;40181;51.560;13.000;2023-06-01T11:57:56;100770.50;;;22.73;43.94
54270;BME280;40181;51.560;13.000;2023-06-01T12:00:26;100776.28;;;22.61;44.11
54270;BME280;40181;51.560;13.000;2023-06-01T12:03:05;100765.34;;;22.67;43.77
54270;BME280;40181;51.560;13.000;2023-06-01T12:05:38;100762.97;;;22.85;44.46
54270;BME280;40181;51.560;13.000;2023-06-01T12:08:17;100748.22;;;22.98;42.70
54270;BME280;40181;51.560;13.000;2023-06-01T12:10:47;100756.31;;;23.47;43.24
54270;BME280;40181;51.560;13.000;2023-06-01T12:13:19;100760.19;;;22.05;44.30
54270;BME280;40181;51.560;13.000;2023-06-01T12:15:50;100763.94;;;22.00;44.28
54270;BME280;40181;51.560;13.000;2023-06-01T12:18:28;100755.22;;;22.77;44.11
54270;BME280;40181;51.560;13.000;2023-06-01T12:20:58;100750.09;;;22.15;43.98
54270;BME280;40181;51.560;13.000;2023-06-01T12:23:29;100746.13;;;22.81;42.49
54270;BME280;40181;51.560;13.000;2023-06-01T12:25:58;100730.94;;;23.07;42.73
54270;BME280;40181;51.560;13.000;2023-06-01T12:28:29;100738.81;;;22.86;43.27
54270;BME280;40181;51.560;13.000;2023-06-01T12:31:16;100742.97;;;23.70;42.28
54270;BME280;40181;51.560;13.000;2023-06-01T12:33:46;100742.72;;;23.03;42.30
54270;BME280;40181;51.560;13.000;2023-06-01T12:36:29;100732.78;;;23.56;43.48
54270;BME280;40181;51.560;13.000;2023-06-01T12:39:03;100732.09;;;23.00;42.95
54270;BME280;40181;51.560;13.000;2023-06-01T12:41:32;100728.28;;;23.32;41.85
54270;BME280;40181;51.560;13.000;2023-06-01T12:44:01;100724.25;;;23.68;41.24
54270;BME280;40181;51.560;13.000;2023-06-01T12:46:31;100723.84;;;23.55;41.66
54270;BME280;40181;51.560;13.000;2023-06-01T12:49:13;100719.81;;;23.67;40.93
54270;BME280;40181;51.560;13.000;2023-06-01T12:51:44;100731.44;;;23.90;40.47
54270;BME280;40181;51.560;13.000;2023-06-01T12:54:16;100718.66;;;23.74;41.56
54270;BME280;40181;51.560;13.000;2023-06-01T12:56:47;100724.66;;;23.57;39.41
54270;BME280;40181;51.560;13.000;2023-06-01T12:59:16;100718.53;;;24.00;40.37
54270;BME280;40181;51.560;13.000;2023-06-01T13:01:45;100713.16;;;24.00;39.41
54270;BME280;40181;51.560;13.000;2023-06-01T13:04:14;100717.25;;;23.40;40.06